Preston Ferry, Arkansas
Current Conditions -  °F | °C
As of 11:55 PM on Tuesday 21 Oct 2014 (Local Time) from KSGT Reporting Station
Clear Clear  
Wind Chill: 14°   Ceiling: Unl
Heat Index: 14°   Visibility: 10mi
Dew Point:   Wind: 6mph
Humidity: 67%   Direction: 50°NE
Pressure: 30.1"   Gusts: NA
Location:  34.6163°N, 91.3754°W
Report Text: KSGT 220455Z AUTO 05005KT 10SM CLR 14/08 A3010 RMK AO1
Loading
Personal Weather Stations






























Interactive Weather Map
Tropical Storm Tracking
New forecast layout! Learn more

10-Day Weather Forecast

Advertisements
Track Severe Weather on mobile